sensor_id;sensor_type;location;lat;lon;timestamp;temperature;humidity
70708;SHT30;58277;47.316;18.908;2023-04-25T00:00:17;12.84;74.22
70708;SHT30;58277;47.316;18.908;2023-04-25T00:02:40;12.87;74.19
70708;SHT30;58277;47.316;18.908;2023-04-25T00:05:03;12.87;74.38
70708;SHT30;58277;47.316;18.908;2023-04-25T00:07:26;12.81;74.27
70708;SHT30;58277;47.316;18.908;2023-04-25T00:09:49;12.78;74.35
70708;SHT30;58277;47.316;18.908;2023-04-25T00:12:11;12.75;74.62
70708;SHT30;58277;47.316;18.908;2023-04-25T00:14:34;12.77;74.87
70708;SHT30;58277;47.316;18.908;2023-04-25T00:16:58;12.69;74.90
70708;SHT30;58277;47.316;18.908;2023-04-25T00:19:21;12.61;75.28
70708;SHT30;58277;47.316;18.908;2023-04-25T00:21:44;12.58;75.72
70708;SHT30;58277;47.316;18.908;2023-04-25T00:24:08;12.55;75.53
70708;SHT30;58277;47.316;18.908;2023-04-25T00:26:31;12.62;75.64
70708;SHT30;58277;47.316;18.908;2023-04-25T00:28:54;12.54;75.84
70708;SHT30;58277;47.316;18.908;2023-04-25T00:31:16;12.52;76.16
70708;SHT30;58277;47.316;18.908;2023-04-25T00:33:39;12.57;76.11
70708;SHT30;58277;47.316;18.908;2023-04-25T00:36:02;12.50;76.00
70708;SHT30;58277;47.316;18.908;2023-04-25T00:38:25;12.52;76.49
70708;SHT30;58277;47.316;18.908;2023-04-25T00:40:48;12.52;76.40
70708;SHT30;58277;47.316;18.908;2023-04-25T00:43:10;12.50;76.77
70708;SHT30;58277;47.316;18.908;2023-04-25T00:45:37;12.47;77.06
70708;SHT30;58277;47.316;18.908;2023-04-25T00:48:01;12.31;77.56
70708;SHT30;58277;47.316;18.908;2023-04-25T00:50:24;12.38;77.62
70708;SHT30;58277;47.316;18.908;2023-04-25T00:52:47;12.33;77.98
70708;SHT30;58277;47.316;18.908;2023-04-25T00:55:11;12.30;78.21
70708;SHT30;58277;47.316;18.908;2023-04-25T00:57:35;12.23;78.68
70708;SHT30;58277;47.316;18.908;2023-04-25T00:59:58;12.20;78.83
70708;SHT30;58277;47.316;18.908;2023-04-25T01:02:23;12.29;78.37
70708;SHT30;58277;47.316;18.908;2023-04-25T01:04:47;12.30;77.91
70708;SHT30;58277;47.316;18.908;2023-04-25T01:07:10;12.34;78.02
70708;SHT30;58277;47.316;18.908;2023-04-25T01:09:33;12.34;78.04
70708;SHT30;58277;47.316;18.908;2023-04-25T01:11:56;12.33;77.40
70708;SHT30;58277;47.316;18.908;2023-04-25T01:14:21;12.27;77.02
70708;SHT30;58277;47.316;18.908;2023-04-25T01:16:46;12.37;76.55
70708;SHT30;58277;47.316;18.908;2023-04-25T01:19:10;12.41;76.23
70708;SHT30;58277;47.316;18.908;2023-04-25T01:21:34;12.44;75.98
70708;SHT30;58277;47.316;18.908;2023-04-25T01:23:57;12.45;75.34
70708;SHT30;58277;47.316;18.908;2023-04-25T01:26:21;12.40;75.03
70708;SHT30;58277;47.316;18.908;2023-04-25T01:28:44;12.40;74.59
70708;SHT30;58277;47.316;18.908;2023-04-25T01:31:07;12.40;73.61
70708;SHT30;58277;47.316;18.908;2023-04-25T01:33:30;12.36;73.33
70708;SHT30;58277;47.316;18.908;2023-04-25T01:35:53;12.40;73.12
70708;SHT30;58277;47.316;18.908;2023-04-25T01:38:16;12.38;73.33
70708;SHT30;58277;47.316;18.908;2023-04-25T01:40:40;12.37;72.83
70708;SHT30;58277;47.316;18.908;2023-04-25T01:43:03;12.44;72.40
70708;SHT30;58277;47.316;18.908;2023-04-25T01:45:25;12.41;72.03
70708;SHT30;58277;47.316;18.908;2023-04-25T01:47:49;12.38;71.67
70708;SHT30;58277;47.316;18.908;2023-04-25T01:50:12;12.40;71.83
70708;SHT30;58277;47.316;18.908;2023-04-25T01:52:35;12.40;71.24
70708;SHT30;58277;47.316;18.908;2023-04-25T01:55:02;12.38;71.42
70708;SHT30;58277;47.316;18.908;2023-04-25T01:57:28;12.34;71.64
70708;SHT30;58277;47.316;18.908;2023-04-25T01:59:51;12.31;71.34
70708;SHT30;58277;47.316;18.908;2023-04-25T02:02:49;12.34;71.42
70708;SHT30;58277;47.316;18.908;2023-04-25T02:05:24;12.38;70.75
70708;SHT30;58277;47.316;18.908;2023-04-25T02:07:47;12.38;70.53
70708;SHT30;58277;47.316;18.908;2023-04-25T02:10:11;12.37;70.27
70708;SHT30;58277;47.316;18.908;2023-04-25T02:13:09;12.31;70.40
70708;SHT30;58277;47.316;18.908;2023-04-25T02:16:01;12.26;70.23
70708;SHT30;58277;47.316;18.908;2023-04-25T02:18:25;12.26;70.09
70708;SHT30;58277;47.316;18.908;2023-04-25T02:20:48;12.23;70.45
70708;SHT30;58277;47.316;18.908;2023-04-25T02:23:11;12.24;69.95
70708;SHT30;58277;47.316;18.908;2023-04-25T02:25:34;12.17;70.02
70708;SHT30;58277;47.316;18.908;2023-04-25T02:27:57;12.19;69.85
70708;SHT30;58277;47.316;18.908;2023-04-25T02:30:20;12.19;69.96
70708;SHT30;58277;47.316;18.908;2023-04-25T02:32:43;12.16;70.03
70708;SHT30;58277;47.316;18.908;2023-04-25T02:35:06;12.17;69.85
70708;SHT30;58277;47.316;18.908;2023-04-25T02:37:33;12.13;69.32
70708;SHT30;58277;47.316;18.908;2023-04-25T02:39:56;12.20;69.31
70708;SHT30;58277;47.316;18.908;2023-04-25T02:42:19;12.13;69.54
70708;SHT30;58277;47.316;18.908;2023-04-25T02:44:41;12.14;69.57
70708;SHT30;58277;47.316;18.908;2023-04-25T02:47:04;12.13;69.83
70708;SHT30;58277;47.316;18.908;2023-04-25T02:49:27;12.13;69.98
70708;SHT30;58277;47.316;18.908;2023-04-25T02:51:50;12.10;69.67
70708;SHT30;58277;47.316;18.908;2023-04-25T02:54:13;12.13;69.62
70708;SHT30;58277;47.316;18.908;2023-04-25T02:56:39;12.04;69.54
70708;SHT30;58277;47.316;18.908;2023-04-25T02:59:07;12.13;69.76
70708;SHT30;58277;47.316;18.908;2023-04-25T03:01:31;12.20;69.49
70708;SHT30;58277;47.316;18.908;2023-04-25T03:03:54;12.41;70.16
70708;SHT30;58277;47.316;18.908;2023-04-25T03:06:17;12.34;68.90
70708;SHT30;58277;47.316;18.908;2023-04-25T03:08:39;12.45;68.15
70708;SHT30;58277;47.316;18.908;2023-04-25T03:11:02;12.48;68.92
70708;SHT30;58277;47.316;18.908;2023-04-25T03:13:25;12.45;67.67
70708;SHT30;58277;47.316;18.908;2023-04-25T03:15:48;12.42;68.42
70708;SHT30;58277;47.316;18.908;2023-04-25T03:18:10;12.34;68.46
70708;SHT30;58277;47.316;18.908;2023-04-25T03:20:34;12.37;68.24
70708;SHT30;58277;47.316;18.908;2023-04-25T03:22:58;12.30;68.76
70708;SHT30;58277;47.316;18.908;2023-04-25T03:25:22;12.26;68.91
70708;SHT30;58277;47.316;18.908;2023-04-25T03:27:45;12.24;69.20
70708;SHT30;58277;47.316;18.908;2023-04-25T03:30:08;12.34;71.03
70708;SHT30;58277;47.316;18.908;2023-04-25T03:32:32;12.20;69.33
70708;SHT30;58277;47.316;18.908;2023-04-25T03:34:54;12.29;70.79
70708;SHT30;58277;47.316;18.908;2023-04-25T03:37:20;12.29;72.95
70708;SHT30;58277;47.316;18.908;2023-04-25T03:39:43;12.23;69.14
70708;SHT30;58277;47.316;18.908;2023-04-25T03:42:06;12.13;69.65
70708;SHT30;58277;47.316;18.908;2023-04-25T03:44:29;12.09;71.31
70708;SHT30;58277;47.316;18.908;2023-04-25T03:46:52;11.99;70.25
70708;SHT30;58277;47.316;18.908;2023-04-25T03:49:15;12.02;72.01
70708;SHT30;58277;47.316;18.908;2023-04-25T03:52:07;11.99;71.40
70708;SHT30;58277;47.316;18.908;2023-04-25T03:54:34;11.99;72.10
70708;SHT30;58277;47.316;18.908;2023-04-25T03:57:01;11.96;70.83
70708;SHT30;58277;47.316;18.908;2023-04-25T03:59:26;11.97;71.41
70708;SHT30;58277;47.316;18.908;2023-04-25T04:01:49;11.89;71.33
70708;SHT30;58277;47.316;18.908;2023-04-25T04:04:12;11.86;71.68
70708;SHT30;58277;47.316;18.908;2023-04-25T04:06:36;11.89;71.91
70708;SHT30;58277;47.316;18.908;2023-04-25T04:09:08;11.82;72.64
70708;SHT30;58277;47.316;18.908;2023-04-25T04:11:34;11.78;72.96
70708;SHT30;58277;47.316;18.908;2023-04-25T04:13:59;11.74;74.16
70708;SHT30;58277;47.316;18.908;2023-04-25T04:16:22;11.75;72.80
70708;SHT30;58277;47.316;18.908;2023-04-25T04:18:45;11.71;73.13
70708;SHT30;58277;47.316;18.908;2023-04-25T04:21:08;11.58;73.66
70708;SHT30;58277;47.316;18.908;2023-04-25T04:23:34;11.62;74.04
70708;SHT30;58277;47.316;18.908;2023-04-25T04:26:01;11.62;74.82
70708;SHT30;58277;47.316;18.908;2023-04-25T04:28:23;11.64;74.38
70708;SHT30;58277;47.316;18.908;2023-04-25T04:30:57;11.52;75.38
70708;SHT30;58277;47.316;18.908;2023-04-25T04:33:21;11.51;75.70
70708;SHT30;58277;47.316;18.908;2023-04-25T04:35:52;11.55;75.66
70708;SHT30;58277;47.316;18.908;2023-04-25T04:38:16;11.31;76.24
70708;SHT30;58277;47.316;18.908;2023-04-25T04:40:39;11.28;76.93
70708;SHT30;58277;47.316;18.908;2023-04-25T04:43:07;11.30;77.14
70708;SHT30;58277;47.316;18.908;2023-04-25T04:45:52;11.08;78.20
70708;SHT30;58277;47.316;18.908;2023-04-25T04:48:33;10.97;79.17
70708;SHT30;58277;47.316;18.908;2023-04-25T04:51:22;10.96;80.29
70708;SHT30;58277;47.316;18.908;2023-04-25T04:54:09;10.93;80.60
70708;SHT30;58277;47.316;18.908;2023-04-25T04:56:41;10.77;81.55
70708;SHT30;58277;47.316;18.908;2023-04-25T04:59:20;10.77;81.86
70708;SHT30;58277;47.316;18.908;2023-04-25T05:02:07;10.69;82.22
70708;SHT30;58277;47.316;18.908;2023-04-25T05:04:48;10.69;82.49
70708;SHT30;58277;47.316;18.908;2023-04-25T05:07:30;10.58;82.51
70708;SHT30;58277;47.316;18.908;2023-04-25T05:10:04;10.68;82.88
70708;SHT30;58277;47.316;18.908;2023-04-25T05:12:36;10.72;82.29
70708;SHT30;58277;47.316;18.908;2023-04-25T05:15:10;10.70;83.19
70708;SHT30;58277;47.316;18.908;2023-04-25T05:17:56;10.63;83.39
70708;SHT30;58277;47.316;18.908;2023-04-25T05:20:27;10.59;83.32
70708;SHT30;58277;47.316;18.908;2023-04-25T05:22:55;10.65;83.48
70708;SHT30;58277;47.316;18.908;2023-04-25T05:25:36;10.53;83.31
70708;SHT30;58277;47.316;18.908;2023-04-25T05:28:08;10.58;83.16
70708;SHT30;58277;47.316;18.908;2023-04-25T05:30:54;10.55;83.58
70708;SHT30;58277;47.316;18.908;2023-04-25T05:33:23;10.70;83.22
70708;SHT30;58277;47.316;18.908;2023-04-25T05:35:46;10.73;82.76
70708;SHT30;58277;47.316;18.908;2023-04-25T05:38:09;10.80;82.51
70708;SHT30;58277;47.316;18.908;2023-04-25T05:41:07;10.76;82.51
70708;SHT30;58277;47.316;18.908;2023-04-25T05:43:56;10.86;83.22
70708;SHT30;58277;47.316;18.908;2023-04-25T05:46:40;11.01;82.72
70708;SHT30;58277;47.316;18.908;2023-04-25T05:49:29;11.08;82.02
70708;SHT30;58277;47.316;18.908;2023-04-25T05:51:53;11.10;82.10
70708;SHT30;58277;47.316;18.908;2023-04-25T05:54:35;11.16;82.12
70708;SHT30;58277;47.316;18.908;2023-04-25T05:57:00;11.20;80.78
70708;SHT30;58277;47.316;18.908;2023-04-25T05:59:25;11.34;80.67
70708;SHT30;58277;47.316;18.908;2023-04-25T06:01:48;11.38;79.78
70708;SHT30;58277;47.316;18.908;2023-04-25T06:04:12;11.44;79.38
70708;SHT30;58277;47.316;18.908;2023-04-25T06:06:35;11.54;78.94
70708;SHT30;58277;47.316;18.908;2023-04-25T06:08:58;11.57;79.35
70708;SHT30;58277;47.316;18.908;2023-04-25T06:11:22;11.65;78.65
70708;SHT30;58277;47.316;18.908;2023-04-25T06:13:45;11.75;78.09
70708;SHT30;58277;47.316;18.908;2023-04-25T06:16:11;12.10;76.57
70708;SHT30;58277;47.316;18.908;2023-04-25T06:18:34;12.14;77.24
70708;SHT30;58277;47.316;18.908;2023-04-25T06:20:57;12.21;76.51
70708;SHT30;58277;47.316;18.908;2023-04-25T06:23:20;12.34;75.90
70708;SHT30;58277;47.316;18.908;2023-04-25T06:25:47;12.45;75.49
70708;SHT30;58277;47.316;18.908;2023-04-25T06:28:10;12.47;75.27
70708;SHT30;58277;47.316;18.908;2023-04-25T06:30:33;12.55;74.48
70708;SHT30;58277;47.316;18.908;2023-04-25T06:33:01;12.47;73.63
70708;SHT30;58277;47.316;18.908;2023-04-25T06:35:24;12.54;74.51
70708;SHT30;58277;47.316;18.908;2023-04-25T06:37:48;12.57;74.06
70708;SHT30;58277;47.316;18.908;2023-04-25T06:40:16;12.67;73.43
70708;SHT30;58277;47.316;18.908;2023-04-25T06:42:39;12.71;72.92
70708;SHT30;58277;47.316;18.908;2023-04-25T06:45:21;12.75;72.82
70708;SHT30;58277;47.316;18.908;2023-04-25T06:47:44;12.89;71.57
70708;SHT30;58277;47.316;18.908;2023-04-25T06:50:07;13.12;72.00
70708;SHT30;58277;47.316;18.908;2023-04-25T06:52:31;13.33;71.50
70708;SHT30;58277;47.316;18.908;2023-04-25T06:54:54;13.71;70.19
70708;SHT30;58277;47.316;18.908;2023-04-25T06:57:36;14.02;69.13
70708;SHT30;58277;47.316;18.908;2023-04-25T07:00:24;14.18;68.92
70708;SHT30;58277;47.316;18.908;2023-04-25T07:02:48;14.61;67.42
70708;SHT30;58277;47.316;18.908;2023-04-25T07:05:12;14.95;66.05
70708;SHT30;58277;47.316;18.908;2023-04-25T07:07:35;15.16;64.84
70708;SHT30;58277;47.316;18.908;2023-04-25T07:09:59;15.26;63.98
70708;SHT30;58277;47.316;18.908;2023-04-25T07:12:24;15.52;63.31
70708;SHT30;58277;47.316;18.908;2023-04-25T07:14:47;15.69;62.96
70708;SHT30;58277;47.316;18.908;2023-04-25T07:17:10;16.08;62.39
70708;SHT30;58277;47.316;18.908;2023-04-25T07:19:34;16.33;61.79
70708;SHT30;58277;47.316;18.908;2023-04-25T07:21:57;16.65;60.94
70708;SHT30;58277;47.316;18.908;2023-04-25T07:24:21;16.49;59.64
70708;SHT30;58277;47.316;18.908;2023-04-25T07:26:45;16.12;61.16
70708;SHT30;58277;47.316;18.908;2023-04-25T07:29:22;16.02;60.73
70708;SHT30;58277;47.316;18.908;2023-04-25T07:31:45;16.01;61.60
70708;SHT30;58277;47.316;18.908;2023-04-25T07:34:09;15.83;61.67
70708;SHT30;58277;47.316;18.908;2023-04-25T07:36:33;15.80;61.70
70708;SHT30;58277;47.316;18.908;2023-04-25T07:38:56;15.59;61.49
70708;SHT30;58277;47.316;18.908;2023-04-25T07:41:19;15.47;62.13
70708;SHT30;58277;47.316;18.908;2023-04-25T07:43:42;15.66;62.10
70708;SHT30;58277;47.316;18.908;2023-04-25T07:46:05;15.53;63.20
70708;SHT30;58277;47.316;18.908;2023-04-25T07:48:30;15.67;62.49
70708;SHT30;58277;47.316;18.908;2023-04-25T07:50:52;15.87;63.78
70708;SHT30;58277;47.316;18.908;2023-04-25T07:53:16;16.02;61.75
70708;SHT30;58277;47.316;18.908;2023-04-25T07:55:46;16.04;61.97
70708;SHT30;58277;47.316;18.908;2023-04-25T07:58:11;16.36;60.29
70708;SHT30;58277;47.316;18.908;2023-04-25T08:00:36;16.52;58.96
70708;SHT30;58277;47.316;18.908;2023-04-25T08:03:21;16.56;58.97
70708;SHT30;58277;47.316;18.908;2023-04-25T08:05:45;16.62;59.87
70708;SHT30;58277;47.316;18.908;2023-04-25T08:08:09;16.56;57.81
70708;SHT30;58277;47.316;18.908;2023-04-25T08:10:33;16.49;56.73
70708;SHT30;58277;47.316;18.908;2023-04-25T08:12:55;16.65;58.44
70708;SHT30;58277;47.316;18.908;2023-04-25T08:15:22;16.73;58.02
70708;SHT30;58277;47.316;18.908;2023-04-25T08:17:44;16.75;58.24
70708;SHT30;58277;47.316;18.908;2023-04-25T08:20:09;16.63;57.26
70708;SHT30;58277;47.316;18.908;2023-04-25T08:22:34;16.56;57.27
70708;SHT30;58277;47.316;18.908;2023-04-25T08:25:16;16.35;58.50
70708;SHT30;58277;47.316;18.908;2023-04-25T08:27:39;16.46;57.83
70708;SHT30;58277;47.316;18.908;2023-04-25T08:30:04;16.32;57.53
70708;SHT30;58277;47.316;18.908;2023-04-25T08:32:32;16.19;58.91
70708;SHT30;58277;47.316;18.908;2023-04-25T08:35:22;16.12;59.25
70708;SHT30;58277;47.316;18.908;2023-04-25T08:37:46;15.97;59.26
70708;SHT30;58277;47.316;18.908;2023-04-25T08:40:14;16.01;59.14
70708;SHT30;58277;47.316;18.908;2023-04-25T08:42:48;16.25;58.42
70708;SHT30;58277;47.316;18.908;2023-04-25T08:45:13;16.26;58.73
70708;SHT30;58277;47.316;18.908;2023-04-25T08:47:38;16.69;58.70
70708;SHT30;58277;47.316;18.908;2023-04-25T08:50:04;16.91;57.07
70708;SHT30;58277;47.316;18.908;2023-04-25T08:52:36;16.91;56.86
70708;SHT30;58277;47.316;18.908;2023-04-25T08:55:00;16.96;56.75
70708;SHT30;58277;47.316;18.908;2023-04-25T08:57:24;16.93;56.83
70708;SHT30;58277;47.316;18.908;2023-04-25T08:59:48;16.93;55.95
70708;SHT30;58277;47.316;18.908;2023-04-25T09:02:12;17.07;56.36
70708;SHT30;58277;47.316;18.908;2023-04-25T09:04:43;17.04;56.85
70708;SHT30;58277;47.316;18.908;2023-04-25T09:07:07;17.02;55.89
70708;SHT30;58277;47.316;18.908;2023-04-25T09:09:31;17.03;57.07
70708;SHT30;58277;47.316;18.908;2023-04-25T09:11:54;17.11;57.18
70708;SHT30;58277;47.316;18.908;2023-04-25T09:14:21;17.00;56.45
70708;SHT30;58277;47.316;18.908;2023-04-25T09:17:10;17.17;56.34
70708;SHT30;58277;47.316;18.908;2023-04-25T09:19:37;17.41;55.96
70708;SHT30;58277;47.316;18.908;2023-04-25T09:22:25;17.27;55.62
70708;SHT30;58277;47.316;18.908;2023-04-25T09:24:48;17.49;55.05
70708;SHT30;58277;47.316;18.908;2023-04-25T09:27:19;17.36;55.16
70708;SHT30;58277;47.316;18.908;2023-04-25T09:29:58;17.58;54.71
70708;SHT30;58277;47.316;18.908;2023-04-25T09:36:38;17.11;54.60
70708;SHT30;58277;47.316;18.908;2023-04-25T09:39:20;16.97;53.82
70708;SHT30;58277;47.316;18.908;2023-04-25T09:41:54;16.99;54.72
70708;SHT30;58277;47.316;18.908;2023-04-25T09:44:23;17.02;54.44
70708;SHT30;58277;47.316;18.908;2023-04-25T09:46:49;16.87;54.55
70708;SHT30;58277;47.316;18.908;2023-04-25T09:49:23;16.76;54.55
70708;SHT30;58277;47.316;18.908;2023-04-25T09:51:58;16.75;54.48
70708;SHT30;58277;47.316;18.908;2023-04-25T09:54:26;16.84;53.24
70708;SHT30;58277;47.316;18.908;2023-04-25T09:57:10;16.75;53.40
70708;SHT30;58277;47.316;18.908;2023-04-25T09:59:38;16.65;54.08
70708;SHT30;58277;47.316;18.908;2023-04-25T10:02:24;16.28;55.22
70708;SHT30;58277;47.316;18.908;2023-04-25T10:04:55;16.51;54.35
70708;SHT30;58277;47.316;18.908;2023-04-25T10:07:31;16.56;53.71
70708;SHT30;58277;47.316;18.908;2023-04-25T10:10:01;16.88;53.99
70708;SHT30;58277;47.316;18.908;2023-04-25T10:12:26;16.97;52.75
70708;SHT30;58277;47.316;18.908;2023-04-25T10:14:50;17.49;53.42
70708;SHT30;58277;47.316;18.908;2023-04-25T10:17:14;17.72;53.29
70708;SHT30;58277;47.316;18.908;2023-04-25T10:19:39;17.82;52.65
70708;SHT30;58277;47.316;18.908;2023-04-25T10:24:25;17.28;52.41
70708;SHT30;58277;47.316;18.908;2023-04-25T10:26:49;17.28;53.03
70708;SHT30;58277;47.316;18.908;2023-04-25T10:29:12;17.17;53.92
70708;SHT30;58277;47.316;18.908;2023-04-25T10:31:46;17.04;53.74
70708;SHT30;58277;47.316;18.908;2023-04-25T10:34:10;16.84;55.02
70708;SHT30;58277;47.316;18.908;2023-04-25T10:36:33;16.97;55.68
70708;SHT30;58277;47.316;18.908;2023-04-25T10:38:56;16.91;54.70
70708;SHT30;58277;47.316;18.908;2023-04-25T10:41:21;17.30;55.02
70708;SHT30;58277;47.316;18.908;2023-04-25T10:43:46;17.51;53.70
70708;SHT30;58277;47.316;18.908;2023-04-25T10:46:30;17.86;53.61
70708;SHT30;58277;47.316;18.908;2023-04-25T10:49:00;17.91;52.33
70708;SHT30;58277;47.316;18.908;2023-04-25T10:51:27;17.85;52.77
70708;SHT30;58277;47.316;18.908;2023-04-25T10:54:04;17.90;52.27
70708;SHT30;58277;47.316;18.908;2023-04-25T10:56:29;17.79;52.48
70708;SHT30;58277;47.316;18.908;2023-04-25T10:59:09;18.24;53.14
70708;SHT30;58277;47.316;18.908;2023-04-25T11:01:38;18.59;51.26
70708;SHT30;58277;47.316;18.908;2023-04-25T11:04:01;18.59;50.76
70708;SHT30;58277;47.316;18.908;2023-04-25T11:08:54;18.52;49.15
70708;SHT30;58277;47.316;18.908;2023-04-25T11:11:18;18.24;50.89
70708;SHT30;58277;47.316;18.908;2023-04-25T11:13:41;17.80;50.18
70708;SHT30;58277;47.316;18.908;2023-04-25T11:16:07;17.82;50.67
70708;SHT30;58277;47.316;18.908;2023-04-25T11:18:41;17.41;50.90
70708;SHT30;58277;47.316;18.908;2023-04-25T11:21:04;17.32;51.07
70708;SHT30;58277;47.316;18.908;2023-04-25T11:23:27;17.15;50.09
70708;SHT30;58277;47.316;18.908;2023-04-25T11:25:50;17.20;49.87
70708;SHT30;58277;47.316;18.908;2023-04-25T11:28:21;17.35;49.80
70708;SHT30;58277;47.316;18.908;2023-04-25T11:30:49;17.61;48.76
70708;SHT30;58277;47.316;18.908;2023-04-25T11:33:14;17.85;50.34
70708;SHT30;58277;47.316;18.908;2023-04-25T11:35:40;17.89;49.57
70708;SHT30;58277;47.316;18.908;2023-04-25T11:38:04;18.31;50.19
70708;SHT30;58277;47.316;18.908;2023-04-25T11:40:27;18.55;47.22
70708;SHT30;58277;47.316;18.908;2023-04-25T11:42:49;18.96;46.20
70708;SHT30;58277;47.316;18.908;2023-04-25T11:45:15;18.99;46.73
70708;SHT30;58277;47.316;18.908;2023-04-25T11:47:39;19.20;45.95
70708;SHT30;58277;47.316;18.908;2023-04-25T11:50:04;19.61;45.31
70708;SHT30;58277;47.316;18.908;2023-04-25T11:52:47;19.67;43.89
70708;SHT30;58277;47.316;18.908;2023-04-25T11:55:31;19.57;43.94
70708;SHT30;58277;47.316;18.908;2023-04-25T11:58:15;19.62;42.27
70708;SHT30;58277;47.316;18.908;2023-04-25T12:00:41;19.37;41.54
70708;SHT30;58277;47.316;18.908;2023-04-25T12:03:12;19.31;43.21
70708;SHT30;58277;47.316;18.908;2023-04-25T12:05:36;19.13;43.04
70708;SHT30;58277;47.316;18.908;2023-04-25T12:08:10;19.00;44.29
70708;SHT30;58277;47.316;18.908;2023-04-25T12:10:37;18.92;42.47
70708;SHT30;58277;47.316;18.908;2023-04-25T12:13:17;18.88;44.42
70708;SHT30;58277;47.316;18.908;2023-04-25T12:15:41;19.22;41.74
70708;SHT30;58277;47.316;18.908;2023-04-25T12:18:04;19.27;41.47
70708;SHT30;58277;47.316;18.908;2023-04-25T12:20:26;19.06;41.03
70708;SHT30;58277;47.316;18.908;2023-04-25T12:22:50;19.02;41.16
70708;SHT30;58277;47.316;18.908;2023-04-25T12:25:33;19.19;40.68
70708;SHT30;58277;47.316;18.908;2023-04-25T12:28:13;19.34;40.70
70708;SHT30;58277;47.316;18.908;2023-04-25T12:31:05;19.38;39.96
70708;SHT30;58277;47.316;18.908;2023-04-25T12:33:30;19.19;38.47
70708;SHT30;58277;47.316;18.908;2023-04-25T12:35:54;19.02;40.41
70708;SHT30;58277;47.316;18.908;2023-04-25T12:38:21;18.55;40.54
70708;SHT30;58277;47.316;18.908;2023-04-25T12:40:44;18.45;42.01
70708;SHT30;58277;47.316;18.908;2023-04-25T12:43:07;18.52;42.01
70708;SHT30;58277;47.316;18.908;2023-04-25T12:45:31;18.72;41.99
70708;SHT30;58277;47.316;18.908;2023-04-25T12:47:54;18.72;42.60
70708;SHT30;58277;47.316;18.908;2023-04-25T12:50:17;18.54;43.14
70708;SHT30;58277;47.316;18.908;2023-04-25T12:52:40;18.26;42.10
70708;SHT30;58277;47.316;18.908;2023-04-25T12:55:03;18.17;42.90
70708;SHT30;58277;47.316;18.908;2023-04-25T12:57:26;18.01;43.47
70708;SHT30;58277;47.316;18.908;2023-04-25T12:59:49;18.01;42.64
70708;SHT30;58277;47.316;18.908;2023-04-25T13:02:12;18.14;42.62
70708;SHT30;58277;47.316;18.908;2023-04-25T13:04:35;18.21;41.67
70708;SHT30;58277;47.316;18.908;2023-04-25T13:06:58;18.18;43.67
70708;SHT30;58277;47.316;18.908;2023-04-25T13:09:21;18.26;41.88
70708;SHT30;58277;47.316;18.908;2023-04-25T13:11:44;18.04;42.58
70708;SHT30;58277;47.316;18.908;2023-04-25T13:14:08;17.97;42.68
70708;SHT30;58277;47.316;18.908;2023-04-25T13:16:31;17.90;40.10
70708;SHT30;58277;47.316;18.908;2023-04-25T13:18:54;17.91;41.02
70708;SHT30;58277;47.316;18.908;2023-04-25T13:21:19;18.00;40.22
70708;SHT30;58277;47.316;18.908;2023-04-25T13:23:41;17.85;42.67
70708;SHT30;58277;47.316;18.908;2023-04-25T13:26:09;17.48;40.82
70708;SHT30;58277;47.316;18.908;2023-04-25T13:28:31;17.45;41.71
70708;SHT30;58277;47.316;18.908;2023-04-25T13:30:54;17.63;41.57
70708;SHT30;58277;47.316;18.908;2023-04-25T13:33:18;17.75;42.63
70708;SHT30;58277;47.316;18.908;2023-04-25T13:35:41;17.78;42.02
70708;SHT30;58277;47.316;18.908;2023-04-25T13:38:04;17.75;43.08
70708;SHT30;58277;47.316;18.908;2023-04-25T13:40:28;17.56;41.84
70708;SHT30;58277;47.316;18.908;2023-04-25T13:42:51;17.56;42.66
70708;SHT30;58277;47.316;18.908;2023-04-25T13:45:13;17.58;42.65
70708;SHT30;58277;47.316;18.908;2023-04-25T13:47:36;17.51;43.46
70708;SHT30;58277;47.316;18.908;2023-04-25T13:49:59;17.52;43.19
70708;SHT30;58277;47.316;18.908;2023-04-25T13:52:22;17.42;42.23
70708;SHT30;58277;47.316;18.908;2023-04-25T13:54:48;17.34;42.98
70708;SHT30;58277;47.316;18.908;2023-04-25T13:57:11;17.31;42.99
70708;SHT30;58277;47.316;18.908;2023-04-25T13:59:34;17.41;43.64
70708;SHT30;58277;47.316;18.908;2023-04-25T14:01:56;17.58;42.56
70708;SHT30;58277;47.316;18.908;2023-04-25T14:04:19;17.53;42.18
70708;SHT30;58277;47.316;18.908;2023-04-25T14:06:42;17.39;42.17
70708;SHT30;58277;47.316;18.908;2023-04-25T14:09:06;17.44;43.35
70708;SHT30;58277;47.316;18.908;2023-04-25T14:11:29;17.24;43.14
70708;SHT30;58277;47.316;18.908;2023-04-25T14:13:52;16.88;43.96
70708;SHT30;58277;47.316;18.908;2023-04-25T14:16:16;16.67;45.34
70708;SHT30;58277;47.316;18.908;2023-04-25T14:18:39;16.67;44.80
70708;SHT30;58277;47.316;18.908;2023-04-25T14:21:01;16.80;44.50
70708;SHT30;58277;47.316;18.908;2023-04-25T14:23:24;17.07;45.44
70708;SHT30;58277;47.316;18.908;2023-04-25T14:25:47;17.27;43.78
70708;SHT30;58277;47.316;18.908;2023-04-25T14:28:10;17.34;43.13
70708;SHT30;58277;47.316;18.908;2023-04-25T14:30:33;17.25;43.07
70708;SHT30;58277;47.316;18.908;2023-04-25T14:32:56;17.23;43.73
70708;SHT30;58277;47.316;18.908;2023-04-25T14:35:18;17.03;43.56
70708;SHT30;58277;47.316;18.908;2023-04-25T14:37:41;16.93;44.33
70708;SHT30;58277;47.316;18.908;2023-04-25T14:40:05;16.87;44.66
70708;SHT30;58277;47.316;18.908;2023-04-25T14:42:29;16.90;44.66
70708;SHT30;58277;47.316;18.908;2023-04-25T14:44:52;16.63;44.82
70708;SHT30;58277;47.316;18.908;2023-04-25T14:47:15;16.45;46.69
70708;SHT30;58277;47.316;18.908;2023-04-25T14:49:40;16.42;46.51
70708;SHT30;58277;47.316;18.908;2023-04-25T14:52:03;16.52;46.42
70708;SHT30;58277;47.316;18.908;2023-04-25T14:54:26;16.46;45.45
70708;SHT30;58277;47.316;18.908;2023-04-25T14:56:49;16.36;46.05
70708;SHT30;58277;47.316;18.908;2023-04-25T14:59:12;16.25;45.99
70708;SHT30;58277;47.316;18.908;2023-04-25T15:01:35;16.12;47.21
70708;SHT30;58277;47.316;18.908;2023-04-25T15:03:58;16.12;47.36
70708;SHT30;58277;47.316;18.908;2023-04-25T15:06:22;15.98;47.72
70708;SHT30;58277;47.316;18.908;2023-04-25T15:08:45;16.01;47.40
70708;SHT30;58277;47.316;18.908;2023-04-25T15:11:09;16.18;47.49
70708;SHT30;58277;47.316;18.908;2023-04-25T15:13:33;16.24;47.60
70708;SHT30;58277;47.316;18.908;2023-04-25T15:15:57;16.15;46.87
70708;SHT30;58277;47.316;18.908;2023-04-25T15:18:21;15.96;46.71
70708;SHT30;58277;47.316;18.908;2023-04-25T15:20:47;15.89;46.95